sensor_id;sensor_type;location;lat;lon;timestamp;P1;durP1;ratioP1;P2;durP2;ratioP2
28834;SDS011;15969;51.536;11.884;2023-04-15T00:00:16;13.10;;;11.90;;
28834;SDS011;15969;51.536;11.884;2023-04-15T00:02:41;12.20;;;10.80;;
28834;SDS011;15969;51.536;11.884;2023-04-15T00:05:08;12.17;;;10.97;;
28834;SDS011;15969;51.536;11.884;2023-04-15T00:07:34;10.27;;;9.27;;
28834;SDS011;15969;51.536;11.884;2023-04-15T00:10:00;9.90;;;9.00;;
28834;SDS011;15969;51.536;11.884;2023-04-15T00:12:26;8.97;;;8.07;;
28834;SDS011;15969;51.536;11.884;2023-04-15T00:14:52;8.20;;;7.40;;
28834;SDS011;15969;51.536;11.884;2023-04-15T00:17:18;8.17;;;7.43;;
28834;SDS011;15969;51.536;11.884;2023-04-15T00:19:44;8.10;;;7.37;;
28834;SDS011;15969;51.536;11.884;2023-04-15T00:22:10;9.20;;;8.30;;
28834;SDS011;15969;51.536;11.884;2023-04-15T00:24:36;9.57;;;8.67;;
28834;SDS011;15969;51.536;11.884;2023-04-15T00:27:02;9.03;;;8.20;;
28834;SDS011;15969;51.536;11.884;2023-04-15T00:29:28;9.37;;;8.47;;
28834;SDS011;15969;51.536;11.884;2023-04-15T00:31:54;11.70;;;9.70;;
28834;SDS011;15969;51.536;11.884;2023-04-15T00:34:21;11.27;;;10.07;;
28834;SDS011;15969;51.536;11.884;2023-04-15T00:36:47;11.87;;;10.77;;
28834;SDS011;15969;51.536;11.884;2023-04-15T00:39:13;12.43;;;11.23;;
28834;SDS011;15969;51.536;11.884;2023-04-15T00:41:40;14.27;;;12.87;;
28834;SDS011;15969;51.536;11.884;2023-04-15T00:44:06;17.73;;;15.90;;
28834;SDS011;15969;51.536;11.884;2023-04-15T00:46:33;20.43;;;18.33;;
28834;SDS011;15969;51.536;11.884;2023-04-15T00:49:02;18.40;;;16.60;;
28834;SDS011;15969;51.536;11.884;2023-04-15T00:51:30;16.87;;;15.27;;
28834;SDS011;15969;51.536;11.884;2023-04-15T00:53:57;16.43;;;14.87;;
28834;SDS011;15969;51.536;11.884;2023-04-15T00:56:24;16.23;;;14.73;;
28834;SDS011;15969;51.536;11.884;2023-04-15T00:58:51;17.70;;;16.00;;
28834;SDS011;15969;51.536;11.884;2023-04-15T01:01:20;16.97;;;15.37;;
28834;SDS011;15969;51.536;11.884;2023-04-15T01:03:47;17.10;;;15.50;;
28834;SDS011;15969;51.536;11.884;2023-04-15T01:06:14;13.27;;;11.97;;
28834;SDS011;15969;51.536;11.884;2023-04-15T01:08:40;11.57;;;10.47;;
28834;SDS011;15969;51.536;11.884;2023-04-15T01:11:06;12.90;;;11.70;;
28834;SDS011;15969;51.536;11.884;2023-04-15T01:13:32;12.17;;;11.07;;
28834;SDS011;15969;51.536;11.884;2023-04-15T01:15:59;12.37;;;11.17;;
28834;SDS011;15969;51.536;11.884;2023-04-15T01:18:25;12.33;;;11.13;;
28834;SDS011;15969;51.536;11.884;2023-04-15T01:20:51;11.10;;;10.00;;
28834;SDS011;15969;51.536;11.884;2023-04-15T01:23:17;11.60;;;10.50;;
28834;SDS011;15969;51.536;11.884;2023-04-15T01:25:43;11.63;;;10.43;;
28834;SDS011;15969;51.536;11.884;2023-04-15T01:28:10;10.77;;;9.67;;
28834;SDS011;15969;51.536;11.884;2023-04-15T01:30:36;11.23;;;10.13;;
28834;SDS011;15969;51.536;11.884;2023-04-15T01:33:01;11.30;;;10.10;;
28834;SDS011;15969;51.536;11.884;2023-04-15T01:35:27;10.87;;;9.77;;
28834;SDS011;15969;51.536;11.884;2023-04-15T01:37:53;9.90;;;8.87;;
28834;SDS011;15969;51.536;11.884;2023-04-15T01:40:30;10.43;;;9.17;;
28834;SDS011;15969;51.536;11.884;2023-04-15T01:42:56;10.17;;;9.07;;
28834;SDS011;15969;51.536;11.884;2023-04-15T01:45:21;10.53;;;9.47;;
28834;SDS011;15969;51.536;11.884;2023-04-15T01:47:47;9.67;;;7.60;;
28834;SDS011;15969;51.536;11.884;2023-04-15T01:50:13;8.73;;;7.73;;
28834;SDS011;15969;51.536;11.884;2023-04-15T01:52:39;8.63;;;7.80;;
28834;SDS011;15969;51.536;11.884;2023-04-15T01:55:05;8.97;;;7.43;;
28834;SDS011;15969;51.536;11.884;2023-04-15T01:57:32;10.90;;;8.23;;
28834;SDS011;15969;51.536;11.884;2023-04-15T01:59:58;9.67;;;8.20;;
28834;SDS011;15969;51.536;11.884;2023-04-15T02:02:23;9.97;;;8.97;;
28834;SDS011;15969;51.536;11.884;2023-04-15T02:04:49;9.33;;;8.03;;
28834;SDS011;15969;51.536;11.884;2023-04-15T02:07:15;10.47;;;9.37;;
28834;SDS011;15969;51.536;11.884;2023-04-15T02:09:41;10.27;;;9.27;;
28834;SDS011;15969;51.536;11.884;2023-04-15T02:12:07;10.27;;;9.17;;
28834;SDS011;15969;51.536;11.884;2023-04-15T02:14:33;10.17;;;9.17;;
28834;SDS011;15969;51.536;11.884;2023-04-15T02:16:59;8.97;;;8.07;;
28834;SDS011;15969;51.536;11.884;2023-04-15T02:19:31;10.57;;;9.50;;
28834;SDS011;15969;51.536;11.884;2023-04-15T02:22:00;9.83;;;7.97;;
28834;SDS011;15969;51.536;11.884;2023-04-15T02:24:26;8.10;;;7.10;;
28834;SDS011;15969;51.536;11.884;2023-04-15T02:26:53;7.97;;;7.13;;
28834;SDS011;15969;51.536;11.884;2023-04-15T02:29:19;7.53;;;6.70;;
28834;SDS011;15969;51.536;11.884;2023-04-15T02:31:44;8.00;;;6.43;;
28834;SDS011;15969;51.536;11.884;2023-04-15T02:34:12;7.80;;;7.00;;
28834;SDS011;15969;51.536;11.884;2023-04-15T02:36:38;7.10;;;6.40;;
28834;SDS011;15969;51.536;11.884;2023-04-15T02:39:04;7.03;;;6.33;;
28834;SDS011;15969;51.536;11.884;2023-04-15T02:41:30;8.43;;;7.63;;
28834;SDS011;15969;51.536;11.884;2023-04-15T02:43:56;7.73;;;6.93;;
28834;SDS011;15969;51.536;11.884;2023-04-15T02:46:21;8.93;;;7.77;;
28834;SDS011;15969;51.536;11.884;2023-04-15T02:48:48;7.93;;;7.07;;
28834;SDS011;15969;51.536;11.884;2023-04-15T02:51:15;8.47;;;7.63;;
28834;SDS011;15969;51.536;11.884;2023-04-15T02:53:43;8.30;;;6.87;;
28834;SDS011;15969;51.536;11.884;2023-04-15T02:56:10;8.07;;;7.27;;
28834;SDS011;15969;51.536;11.884;2023-04-15T02:58:36;7.73;;;7.03;;
28834;SDS011;15969;51.536;11.884;2023-04-15T03:01:02;7.73;;;6.93;;
28834;SDS011;15969;51.536;11.884;2023-04-15T03:03:28;8.37;;;7.43;;
28834;SDS011;15969;51.536;11.884;2023-04-15T03:05:54;8.20;;;7.40;;
28834;SDS011;15969;51.536;11.884;2023-04-15T03:08:20;8.33;;;7.53;;
28834;SDS011;15969;51.536;11.884;2023-04-15T03:10:46;8.40;;;7.00;;
28834;SDS011;15969;51.536;11.884;2023-04-15T03:13:12;7.53;;;6.83;;
28834;SDS011;15969;51.536;11.884;2023-04-15T03:15:38;8.10;;;7.30;;
28834;SDS011;15969;51.536;11.884;2023-04-15T03:18:03;8.10;;;7.30;;
28834;SDS011;15969;51.536;11.884;2023-04-15T03:20:29;7.90;;;7.07;;
28834;SDS011;15969;51.536;11.884;2023-04-15T03:22:55;7.47;;;6.70;;
28834;SDS011;15969;51.536;11.884;2023-04-15T03:25:21;8.30;;;7.50;;
28834;SDS011;15969;51.536;11.884;2023-04-15T03:27:46;7.70;;;6.90;;
28834;SDS011;15969;51.536;11.884;2023-04-15T03:30:12;8.20;;;7.33;;
28834;SDS011;15969;51.536;11.884;2023-04-15T03:32:38;7.63;;;6.83;;
28834;SDS011;15969;51.536;11.884;2023-04-15T03:35:04;9.00;;;7.07;;
28834;SDS011;15969;51.536;11.884;2023-04-15T03:37:30;7.70;;;6.77;;
28834;SDS011;15969;51.536;11.884;2023-04-15T03:39:56;7.97;;;7.17;;
28834;SDS011;15969;51.536;11.884;2023-04-15T03:42:22;8.13;;;7.33;;
28834;SDS011;15969;51.536;11.884;2023-04-15T03:44:47;14.00;;;12.60;;
28834;SDS011;15969;51.536;11.884;2023-04-15T03:47:13;8.73;;;7.83;;
28834;SDS011;15969;51.536;11.884;2023-04-15T03:49:39;8.87;;;7.43;;
28834;SDS011;15969;51.536;11.884;2023-04-15T03:52:04;8.27;;;6.63;;
28834;SDS011;15969;51.536;11.884;2023-04-15T03:54:30;7.60;;;6.80;;
28834;SDS011;15969;51.536;11.884;2023-04-15T03:56:56;7.33;;;6.63;;
28834;SDS011;15969;51.536;11.884;2023-04-15T03:59:21;6.73;;;6.03;;
28834;SDS011;15969;51.536;11.884;2023-04-15T04:01:47;8.50;;;6.20;;
28834;SDS011;15969;51.536;11.884;2023-04-15T04:04:13;8.03;;;7.23;;
28834;SDS011;15969;51.536;11.884;2023-04-15T04:06:39;7.43;;;6.63;;
28834;SDS011;15969;51.536;11.884;2023-04-15T04:09:05;8.07;;;6.57;;
28834;SDS011;15969;51.536;11.884;2023-04-15T04:11:31;8.00;;;7.20;;
28834;SDS011;15969;51.536;11.884;2023-04-15T04:13:57;8.47;;;7.63;;
28834;SDS011;15969;51.536;11.884;2023-04-15T04:16:23;8.93;;;7.73;;
28834;SDS011;15969;51.536;11.884;2023-04-15T04:18:48;7.90;;;7.10;;
28834;SDS011;15969;51.536;11.884;2023-04-15T04:21:14;8.73;;;7.73;;
28834;SDS011;15969;51.536;11.884;2023-04-15T04:23:40;8.53;;;7.70;;
28834;SDS011;15969;51.536;11.884;2023-04-15T04:26:06;9.33;;;8.30;;
28834;SDS011;15969;51.536;11.884;2023-04-15T04:28:32;8.87;;;7.90;;
28834;SDS011;15969;51.536;11.884;2023-04-15T04:30:57;9.03;;;8.13;;
28834;SDS011;15969;51.536;11.884;2023-04-15T04:33:24;10.33;;;8.53;;
28834;SDS011;15969;51.536;11.884;2023-04-15T04:35:50;8.97;;;8.13;;
28834;SDS011;15969;51.536;11.884;2023-04-15T04:38:15;9.40;;;8.47;;
28834;SDS011;15969;51.536;11.884;2023-04-15T04:40:41;8.30;;;7.40;;
28834;SDS011;15969;51.536;11.884;2023-04-15T04:43:06;10.17;;;8.53;;
28834;SDS011;15969;51.536;11.884;2023-04-15T04:45:33;10.97;;;9.17;;
28834;SDS011;15969;51.536;11.884;2023-04-15T04:47:58;10.23;;;9.23;;
28834;SDS011;15969;51.536;11.884;2023-04-15T04:50:24;10.33;;;9.20;;
28834;SDS011;15969;51.536;11.884;2023-04-15T04:52:51;9.80;;;8.40;;
28834;SDS011;15969;51.536;11.884;2023-04-15T04:55:16;9.77;;;8.73;;
28834;SDS011;15969;51.536;11.884;2023-04-15T04:57:42;10.70;;;9.40;;
28834;SDS011;15969;51.536;11.884;2023-04-15T05:00:08;9.53;;;8.53;;
28834;SDS011;15969;51.536;11.884;2023-04-15T05:02:34;10.93;;;8.87;;
28834;SDS011;15969;51.536;11.884;2023-04-15T05:05:00;10.53;;;9.43;;
28834;SDS011;15969;51.536;11.884;2023-04-15T05:07:25;11.97;;;10.27;;
28834;SDS011;15969;51.536;11.884;2023-04-15T05:09:51;10.13;;;8.33;;
28834;SDS011;15969;51.536;11.884;2023-04-15T05:12:17;10.80;;;8.93;;
28834;SDS011;15969;51.536;11.884;2023-04-15T05:14:42;11.17;;;8.87;;
28834;SDS011;15969;51.536;11.884;2023-04-15T05:17:08;11.40;;;9.83;;
28834;SDS011;15969;51.536;11.884;2023-04-15T05:19:35;10.33;;;9.23;;
28834;SDS011;15969;51.536;11.884;2023-04-15T05:22:01;10.40;;;9.40;;
28834;SDS011;15969;51.536;11.884;2023-04-15T05:24:27;11.00;;;8.60;;
28834;SDS011;15969;51.536;11.884;2023-04-15T05:26:52;10.13;;;9.13;;
28834;SDS011;15969;51.536;11.884;2023-04-15T05:29:18;11.03;;;9.30;;
28834;SDS011;15969;51.536;11.884;2023-04-15T05:31:44;10.47;;;9.17;;
28834;SDS011;15969;51.536;11.884;2023-04-15T05:34:10;10.30;;;9.20;;
28834;SDS011;15969;51.536;11.884;2023-04-15T05:36:36;10.40;;;9.30;;
28834;SDS011;15969;51.536;11.884;2023-04-15T05:39:02;10.03;;;9.00;;
28834;SDS011;15969;51.536;11.884;2023-04-15T05:41:28;11.50;;;10.03;;
28834;SDS011;15969;51.536;11.884;2023-04-15T05:43:53;12.27;;;10.97;;
28834;SDS011;15969;51.536;11.884;2023-04-15T05:46:19;10.17;;;9.13;;
28834;SDS011;15969;51.536;11.884;2023-04-15T05:48:45;9.57;;;8.57;;
28834;SDS011;15969;51.536;11.884;2023-04-15T05:51:11;9.27;;;8.37;;
28834;SDS011;15969;51.536;11.884;2023-04-15T05:53:36;8.43;;;7.53;;
28834;SDS011;15969;51.536;11.884;2023-04-15T05:56:02;9.17;;;8.27;;
28834;SDS011;15969;51.536;11.884;2023-04-15T05:58:28;9.43;;;7.37;;
28834;SDS011;15969;51.536;11.884;2023-04-15T06:00:54;8.87;;;7.50;;
28834;SDS011;15969;51.536;11.884;2023-04-15T06:03:20;8.87;;;7.97;;
28834;SDS011;15969;51.536;11.884;2023-04-15T06:05:46;8.60;;;7.33;;
28834;SDS011;15969;51.536;11.884;2023-04-15T06:08:12;8.13;;;7.30;;
28834;SDS011;15969;51.536;11.884;2023-04-15T06:10:38;8.17;;;7.33;;
28834;SDS011;15969;51.536;11.884;2023-04-15T06:13:03;7.63;;;6.80;;
28834;SDS011;15969;51.536;11.884;2023-04-15T06:15:30;8.50;;;7.57;;
28834;SDS011;15969;51.536;11.884;2023-04-15T06:17:56;7.33;;;6.53;;
28834;SDS011;15969;51.536;11.884;2023-04-15T06:20:21;8.13;;;7.30;;
28834;SDS011;15969;51.536;11.884;2023-04-15T06:22:47;7.20;;;6.53;;
28834;SDS011;15969;51.536;11.884;2023-04-15T06:25:13;8.23;;;6.83;;
28834;SDS011;15969;51.536;11.884;2023-04-15T06:27:39;7.53;;;6.73;;
28834;SDS011;15969;51.536;11.884;2023-04-15T06:30:05;8.40;;;6.80;;
28834;SDS011;15969;51.536;11.884;2023-04-15T06:32:32;7.20;;;6.50;;
28834;SDS011;15969;51.536;11.884;2023-04-15T06:34:57;7.17;;;6.20;;
28834;SDS011;15969;51.536;11.884;2023-04-15T06:37:23;7.40;;;6.57;;
28834;SDS011;15969;51.536;11.884;2023-04-15T06:39:49;6.77;;;6.07;;
28834;SDS011;15969;51.536;11.884;2023-04-15T06:42:15;7.70;;;6.57;;
28834;SDS011;15969;51.536;11.884;2023-04-15T06:44:41;8.23;;;6.13;;
28834;SDS011;15969;51.536;11.884;2023-04-15T06:47:06;8.27;;;6.13;;
28834;SDS011;15969;51.536;11.884;2023-04-15T06:49:33;8.30;;;6.73;;
28834;SDS011;15969;51.536;11.884;2023-04-15T06:51:59;7.60;;;6.83;;
28834;SDS011;15969;51.536;11.884;2023-04-15T06:54:25;9.87;;;7.37;;
28834;SDS011;15969;51.536;11.884;2023-04-15T06:56:51;7.70;;;6.63;;
28834;SDS011;15969;51.536;11.884;2023-04-15T06:59:17;7.67;;;6.90;;
28834;SDS011;15969;51.536;11.884;2023-04-15T07:01:42;7.67;;;6.90;;
28834;SDS011;15969;51.536;11.884;2023-04-15T07:04:08;8.80;;;7.37;;
28834;SDS011;15969;51.536;11.884;2023-04-15T07:06:35;7.80;;;6.90;;
28834;SDS011;15969;51.536;11.884;2023-04-15T07:09:01;8.13;;;7.33;;
28834;SDS011;15969;51.536;11.884;2023-04-15T07:11:28;7.87;;;6.97;;
28834;SDS011;15969;51.536;11.884;2023-04-15T07:13:54;7.30;;;6.57;;
28834;SDS011;15969;51.536;11.884;2023-04-15T07:16:20;7.60;;;6.80;;
28834;SDS011;15969;51.536;11.884;2023-04-15T07:18:46;9.43;;;6.80;;
28834;SDS011;15969;51.536;11.884;2023-04-15T07:21:12;9.57;;;7.23;;
28834;SDS011;15969;51.536;11.884;2023-04-15T07:23:38;8.10;;;7.00;;
28834;SDS011;15969;51.536;11.884;2023-04-15T07:26:03;7.07;;;6.37;;
28834;SDS011;15969;51.536;11.884;2023-04-15T07:28:29;8.37;;;7.53;;
28834;SDS011;15969;51.536;11.884;2023-04-15T07:30:55;8.40;;;7.17;;
28834;SDS011;15969;51.536;11.884;2023-04-15T07:33:21;7.93;;;7.13;;
28834;SDS011;15969;51.536;11.884;2023-04-15T07:35:47;8.90;;;8.00;;
28834;SDS011;15969;51.536;11.884;2023-04-15T07:38:13;7.37;;;6.63;;
28834;SDS011;15969;51.536;11.884;2023-04-15T07:40:39;9.43;;;7.37;;
28834;SDS011;15969;51.536;11.884;2023-04-15T07:43:06;8.37;;;7.47;;
28834;SDS011;15969;51.536;11.884;2023-04-15T07:45:32;9.47;;;7.37;;
28834;SDS011;15969;51.536;11.884;2023-04-15T07:47:59;10.50;;;8.77;;
28834;SDS011;15969;51.536;11.884;2023-04-15T07:50:26;9.93;;;8.93;;
28834;SDS011;15969;51.536;11.884;2023-04-15T07:52:52;11.50;;;10.27;;
28834;SDS011;15969;51.536;11.884;2023-04-15T07:55:18;10.70;;;9.60;;
28834;SDS011;15969;51.536;11.884;2023-04-15T07:57:45;10.93;;;9.83;;
28834;SDS011;15969;51.536;11.884;2023-04-15T08:00:11;10.87;;;9.77;;
28834;SDS011;15969;51.536;11.884;2023-04-15T08:02:38;13.17;;;11.20;;
28834;SDS011;15969;51.536;11.884;2023-04-15T08:05:04;11.33;;;10.23;;
28834;SDS011;15969;51.536;11.884;2023-04-15T08:07:31;15.40;;;13.67;;
28834;SDS011;15969;51.536;11.884;2023-04-15T08:09:57;14.90;;;13.33;;
28834;SDS011;15969;51.536;11.884;2023-04-15T08:12:22;17.00;;;13.53;;
28834;SDS011;15969;51.536;11.884;2023-04-15T08:14:49;13.93;;;12.37;;
28834;SDS011;15969;51.536;11.884;2023-04-15T08:17:15;16.03;;;13.60;;
28834;SDS011;15969;51.536;11.884;2023-04-15T08:19:40;16.67;;;14.87;;
28834;SDS011;15969;51.536;11.884;2023-04-15T08:22:06;17.70;;;14.60;;
28834;SDS011;15969;51.536;11.884;2023-04-15T08:24:32;16.67;;;14.97;;
28834;SDS011;15969;51.536;11.884;2023-04-15T08:26:58;15.60;;;13.93;;
28834;SDS011;15969;51.536;11.884;2023-04-15T08:29:25;15.17;;;13.57;;
28834;SDS011;15969;51.536;11.884;2023-04-15T08:31:51;19.17;;;16.33;;
28834;SDS011;15969;51.536;11.884;2023-04-15T08:34:17;18.80;;;15.30;;
28834;SDS011;15969;51.536;11.884;2023-04-15T08:36:43;19.70;;;16.20;;
28834;SDS011;15969;51.536;11.884;2023-04-15T08:39:09;20.17;;;15.93;;
28834;SDS011;15969;51.536;11.884;2023-04-15T08:41:45;17.80;;;14.37;;
28834;SDS011;15969;51.536;11.884;2023-04-15T08:44:21;18.13;;;14.30;;
28834;SDS011;15969;51.536;11.884;2023-04-15T08:46:49;17.77;;;14.00;;
28834;SDS011;15969;51.536;11.884;2023-04-15T08:49:16;16.13;;;13.70;;
28834;SDS011;15969;51.536;11.884;2023-04-15T08:51:43;17.87;;;14.30;;
28834;SDS011;15969;51.536;11.884;2023-04-15T08:54:09;17.33;;;14.17;;
28834;SDS011;15969;51.536;11.884;2023-04-15T08:56:35;18.83;;;14.70;;
28834;SDS011;15969;51.536;11.884;2023-04-15T08:59:03;21.47;;;15.77;;
28834;SDS011;15969;51.536;11.884;2023-04-15T09:01:29;18.30;;;15.43;;
28834;SDS011;15969;51.536;11.884;2023-04-15T09:03:56;22.73;;;16.57;;
28834;SDS011;15969;51.536;11.884;2023-04-15T09:06:23;22.07;;;16.73;;
28834;SDS011;15969;51.536;11.884;2023-04-15T09:08:50;21.57;;;17.07;;
28834;SDS011;15969;51.536;11.884;2023-04-15T09:11:16;25.20;;;18.50;;
28834;SDS011;15969;51.536;11.884;2023-04-15T09:13:42;24.83;;;18.00;;
28834;SDS011;15969;51.536;11.884;2023-04-15T09:16:07;27.80;;;19.93;;
28834;SDS011;15969;51.536;11.884;2023-04-15T09:18:34;28.87;;;21.70;;
28834;SDS011;15969;51.536;11.884;2023-04-15T09:21:06;32.50;;;22.90;;
28834;SDS011;15969;51.536;11.884;2023-04-15T09:23:35;33.83;;;23.63;;
28834;SDS011;15969;51.536;11.884;2023-04-15T09:26:04;33.37;;;24.03;;
28834;SDS011;15969;51.536;11.884;2023-04-15T09:28:30;37.33;;;24.93;;
28834;SDS011;15969;51.536;11.884;2023-04-15T09:30:57;37.73;;;24.00;;
28834;SDS011;15969;51.536;11.884;2023-04-15T09:33:25;39.20;;;26.10;;
28834;SDS011;15969;51.536;11.884;2023-04-15T09:36:00;39.63;;;25.13;;
28834;SDS011;15969;51.536;11.884;2023-04-15T09:38:28;36.77;;;25.27;;
28834;SDS011;15969;51.536;11.884;2023-04-15T09:40:55;35.83;;;24.67;;
28834;SDS011;15969;51.536;11.884;2023-04-15T09:43:22;35.53;;;24.07;;
28834;SDS011;15969;51.536;11.884;2023-04-15T09:45:50;35.57;;;24.37;;
28834;SDS011;15969;51.536;11.884;2023-04-15T09:48:24;41.67;;;25.90;;
28834;SDS011;15969;51.536;11.884;2023-04-15T09:50:51;40.47;;;27.00;;
28834;SDS011;15969;51.536;11.884;2023-04-15T09:53:21;44.93;;;29.13;;
28834;SDS011;15969;51.536;11.884;2023-04-15T09:55:55;45.80;;;28.53;;
28834;SDS011;15969;51.536;11.884;2023-04-15T09:58:27;48.97;;;29.57;;
28834;SDS011;15969;51.536;11.884;2023-04-15T10:00:55;50.50;;;30.73;;
28834;SDS011;15969;51.536;11.884;2023-04-15T10:03:23;51.43;;;32.17;;
28834;SDS011;15969;51.536;11.884;2023-04-15T10:05:55;51.50;;;31.57;;
28834;SDS011;15969;51.536;11.884;2023-04-15T10:08:24;55.27;;;33.33;;
28834;SDS011;15969;51.536;11.884;2023-04-15T10:10:52;57.60;;;35.07;;
28834;SDS011;15969;51.536;11.884;2023-04-15T10:13:23;60.30;;;34.10;;
28834;SDS011;15969;51.536;11.884;2023-04-15T10:16:26;60.70;;;36.43;;
28834;SDS011;15969;51.536;11.884;2023-04-15T10:18:45;61.43;;;36.47;;
28834;SDS011;15969;51.536;11.884;2023-04-15T10:21:19;59.07;;;35.77;;
28834;SDS011;15969;51.536;11.884;2023-04-15T10:23:47;56.80;;;35.70;;
28834;SDS011;15969;51.536;11.884;2023-04-15T10:26:14;63.83;;;37.83;;
28834;SDS011;15969;51.536;11.884;2023-04-15T10:28:41;63.60;;;36.30;;
28834;SDS011;15969;51.536;11.884;2023-04-15T10:31:14;61.47;;;37.33;;
28834;SDS011;15969;51.536;11.884;2023-04-15T10:33:41;62.00;;;36.83;;
28834;SDS011;15969;51.536;11.884;2023-04-15T10:36:08;64.13;;;37.70;;
28834;SDS011;15969;51.536;11.884;2023-04-15T10:38:39;64.67;;;40.07;;
28834;SDS011;15969;51.536;11.884;2023-04-15T10:41:25;65.07;;;40.90;;
28834;SDS011;15969;51.536;11.884;2023-04-15T10:46:41;69.67;;;40.67;;
28834;SDS011;15969;51.536;11.884;2023-04-15T10:49:12;68.73;;;41.47;;
28834;SDS011;15969;51.536;11.884;2023-04-15T10:51:45;60.83;;;40.47;;
28834;SDS011;15969;51.536;11.884;2023-04-15T10:54:29;64.03;;;41.57;;
28834;SDS011;15969;51.536;11.884;2023-04-15T10:59:36;56.70;;;38.73;;
28834;SDS011;15969;51.536;11.884;2023-04-15T11:08:16;57.30;;;38.57;;
28834;SDS011;15969;51.536;11.884;2023-04-15T11:21:06;51.03;;;37.30;;
28834;SDS011;15969;51.536;11.884;2023-04-15T11:23:33;51.43;;;36.90;;
28834;SDS011;15969;51.536;11.884;2023-04-15T11:26:01;49.77;;;37.20;;
28834;SDS011;15969;51.536;11.884;2023-04-15T11:28:39;48.43;;;38.23;;
28834;SDS011;15969;51.536;11.884;2023-04-15T11:34:11;48.17;;;37.60;;
28834;SDS011;15969;51.536;11.884;2023-04-15T11:36:31;48.27;;;37.93;;
28834;SDS011;15969;51.536;11.884;2023-04-15T11:38:57;48.27;;;37.03;;
28834;SDS011;15969;51.536;11.884;2023-04-15T11:41:23;44.63;;;36.47;;
28834;SDS011;15969;51.536;11.884;2023-04-15T11:43:50;45.80;;;36.20;;
28834;SDS011;15969;51.536;11.884;2023-04-15T11:46:16;43.27;;;34.00;;
28834;SDS011;15969;51.536;11.884;2023-04-15T11:48:43;43.40;;;35.73;;
28834;SDS011;15969;51.536;11.884;2023-04-15T11:51:10;43.53;;;35.27;;
28834;SDS011;15969;51.536;11.884;2023-04-15T11:53:41;42.90;;;34.83;;
28834;SDS011;15969;51.536;11.884;2023-04-15T11:56:18;40.80;;;34.93;;
28834;SDS011;15969;51.536;11.884;2023-04-15T11:58:46;39.83;;;33.67;;
28834;SDS011;15969;51.536;11.884;2023-04-15T12:01:15;37.73;;;33.33;;
28834;SDS011;15969;51.536;11.884;2023-04-15T12:03:44;35.50;;;31.47;;
28834;SDS011;15969;51.536;11.884;2023-04-15T12:06:12;33.33;;;29.70;;
28834;SDS011;15969;51.536;11.884;2023-04-15T12:13:52;32.30;;;28.63;;
28834;SDS011;15969;51.536;11.884;2023-04-15T12:16:20;32.67;;;29.17;;
28834;SDS011;15969;51.536;11.884;2023-04-15T12:18:54;32.07;;;28.33;;
28834;SDS011;15969;51.536;11.884;2023-04-15T12:21:27;32.97;;;28.33;;
28834;SDS011;15969;51.536;11.884;2023-04-15T12:24:02;29.97;;;26.73;;
28834;SDS011;15969;51.536;11.884;2023-04-15T12:26:32;28.33;;;25.43;;
28834;SDS011;15969;51.536;11.884;2023-04-15T12:29:13;25.63;;;23.10;;
28834;SDS011;15969;51.536;11.884;2023-04-15T12:31:48;27.17;;;23.70;;
28834;SDS011;15969;51.536;11.884;2023-04-15T12:34:39;26.00;;;23.40;;
28834;SDS011;15969;51.536;11.884;2023-04-15T12:37:15;25.53;;;22.83;;
28834;SDS011;15969;51.536;11.884;2023-04-15T12:39:42;25.77;;;23.20;;
28834;SDS011;15969;51.536;11.884;2023-04-15T12:42:10;25.87;;;23.27;;
28834;SDS011;15969;51.536;11.884;2023-04-15T12:44:36;24.13;;;21.60;;
28834;SDS011;15969;51.536;11.884;2023-04-15T12:47:03;24.13;;;21.63;;
28834;SDS011;15969;51.536;11.884;2023-04-15T12:49:29;24.27;;;21.87;;
28834;SDS011;15969;51.536;11.884;2023-04-15T12:51:57;23.47;;;21.17;;
28834;SDS011;15969;51.536;11.884;2023-04-15T12:54:25;23.33;;;21.13;;
28834;SDS011;15969;51.536;11.884;2023-04-15T12:56:52;23.93;;;21.53;;
28834;SDS011;15969;51.536;11.884;2023-04-15T12:59:19;22.40;;;20.10;;
28834;SDS011;15969;51.536;11.884;2023-04-15T13:01:46;22.73;;;20.53;;
28834;SDS011;15969;51.536;11.884;2023-04-15T13:04:12;19.97;;;18.10;;
28834;SDS011;15969;51.536;11.884;2023-04-15T13:06:38;19.43;;;17.43;;
28834;SDS011;15969;51.536;11.884;2023-04-15T13:09:04;18.33;;;16.37;;
28834;SDS011;15969;51.536;11.884;2023-04-15T13:11:30;18.27;;;16.37;;
28834;SDS011;15969;51.536;11.884;2023-04-15T13:13:57;17.27;;;15.67;;
28834;SDS011;15969;51.536;11.884;2023-04-15T13:16:25;16.27;;;14.10;;
28834;SDS011;15969;51.536;11.884;2023-04-15T13:18:51;18.10;;;16.27;;
28834;SDS011;15969;51.536;11.884;2023-04-15T13:21:18;16.53;;;14.93;;
28834;SDS011;15969;51.536;11.884;2023-04-15T13:23:44;16.83;;;15.23;;
28834;SDS011;15969;51.536;11.884;2023-04-15T13:26:10;16.73;;;15.13;;
28834;SDS011;15969;51.536;11.884;2023-04-15T13:28:36;16.63;;;15.00;;
28834;SDS011;15969;51.536;11.884;2023-04-15T13:31:02;16.33;;;14.77;;
28834;SDS011;15969;51.536;11.884;2023-04-15T13:33:27;15.57;;;14.10;;
28834;SDS011;15969;51.536;11.884;2023-04-15T13:35:53;17.07;;;15.57;;
28834;SDS011;15969;51.536;11.884;2023-04-15T13:38:19;15.67;;;14.17;;
28834;SDS011;15969;51.536;11.884;2023-04-15T13:40:45;15.23;;;13.73;;
28834;SDS011;15969;51.536;11.884;2023-04-15T13:43:10;14.80;;;13.40;;
28834;SDS011;15969;51.536;11.884;2023-04-15T13:45:36;14.47;;;12.93;;
28834;SDS011;15969;51.536;11.884;2023-04-15T13:48:02;13.43;;;12.33;;
28834;SDS011;15969;51.536;11.884;2023-04-15T13:50:28;14.57;;;13.17;;
28834;SDS011;15969;51.536;11.884;2023-04-15T13:52:54;13.67;;;12.47;;
28834;SDS011;15969;51.536;11.884;2023-04-15T13:55:20;12.47;;;11.37;;
28834;SDS011;15969;51.536;11.884;2023-04-15T13:57:46;11.67;;;10.67;;
28834;SDS011;15969;51.536;11.884;2023-04-15T14:00:12;12.20;;;11.20;;
28834;SDS011;15969;51.536;11.884;2023-04-15T14:02:38;10.70;;;9.70;;
28834;SDS011;15969;51.536;11.884;2023-04-15T14:05:05;13.43;;;12.27;;
28834;SDS011;15969;51.536;11.884;2023-04-15T14:07:31;15.20;;;13.80;;
28834;SDS011;15969;51.536;11.884;2023-04-15T14:09:57;16.10;;;14.57;;
28834;SDS011;15969;51.536;11.884;2023-04-15T14:12:23;15.43;;;14.03;;
28834;SDS011;15969;51.536;11.884;2023-04-15T14:14:48;14.60;;;13.10;;
28834;SDS011;15969;51.536;11.884;2023-04-15T14:17:14;14.63;;;13.13;;
28834;SDS011;15969;51.536;11.884;2023-04-15T14:19:40;14.27;;;12.97;;
28834;SDS011;15969;51.536;11.884;2023-04-15T14:22:05;12.83;;;11.73;;
28834;SDS011;15969;51.536;11.884;2023-04-15T14:24:31;12.93;;;11.83;;
28834;SDS011;15969;51.536;11.884;2023-04-15T14:26:57;13.93;;;12.43;;
28834;SDS011;15969;51.536;11.884;2023-04-15T14:29:23;13.40;;;12.20;;
28834;SDS011;15969;51.536;11.884;2023-04-15T14:31:48;13.37;;;12.17;;
28834;SDS011;15969;51.536;11.884;2023-04-15T14:34:14;13.07;;;11.87;;
28834;SDS011;15969;51.536;11.884;2023-04-15T14:36:41;14.27;;;12.97;;
28834;SDS011;15969;51.536;11.884;2023-04-15T14:39:07;13.90;;;12.60;;
28834;SDS011;15969;51.536;11.884;2023-04-15T14:41:33;13.67;;;12.47;;
28834;SDS011;15969;51.536;11.884;2023-04-15T14:43:59;11.90;;;10.80;;
28834;SDS011;15969;51.536;11.884;2023-04-15T14:46:25;12.23;;;11.13;;